createdAt,value
2023-04-29T00:01:30.476Z,20.60
2023-04-29T00:03:57.123Z,20.92
2023-04-29T00:06:24.038Z,21.05
2023-04-29T00:08:52.241Z,19.83
2023-04-29T00:11:18.871Z,25.85
2023-04-29T00:13:45.402Z,28.58
2023-04-29T00:16:11.982Z,27.65
2023-04-29T00:18:38.481Z,27.73
2023-04-29T00:21:07.967Z,31.25
2023-04-29T00:23:34.637Z,30.80
2023-04-29T00:26:01.276Z,29.55
2023-04-29T00:28:28.097Z,28.17
2023-04-29T00:30:55.945Z,30.98
2023-04-29T00:33:22.746Z,27.30
2023-04-29T00:35:49.541Z,27.42
2023-04-29T00:38:16.293Z,29.55
2023-04-29T00:40:46.061Z,30.83
2023-04-29T00:43:13.508Z,31.88
2023-04-29T00:45:40.377Z,21.23
2023-04-29T00:48:07.914Z,26.73
2023-04-29T00:50:34.740Z,25.60
2023-04-29T00:53:01.430Z,21.75
2023-04-29T00:55:28.731Z,29.83
2023-04-29T00:57:56.048Z,21.75
2023-04-29T01:00:24.432Z,25.85
2023-04-29T01:02:51.119Z,28.45
2023-04-29T01:05:17.958Z,27.50
2023-04-29T01:08:06.214Z,23.85
2023-04-29T01:10:41.911Z,29.90
2023-04-29T01:13:19.008Z,26.20
2023-04-29T01:15:55.821Z,24.77
2023-04-29T01:18:27.977Z,27.33
2023-04-29T01:23:26.754Z,25.83
2023-04-29T01:25:53.356Z,18.37
2023-04-29T01:28:48.779Z,32.90
2023-04-29T01:31:24.601Z,30.25
2023-04-29T01:34:09.092Z,35.40
2023-04-29T01:36:50.894Z,33.92
2023-04-29T01:39:26.563Z,32.85
2023-04-29T01:42:37.375Z,31.08
2023-04-29T01:45:11.789Z,35.00
2023-04-29T01:47:39.241Z,31.42
2023-04-29T01:50:06.575Z,37.05
2023-04-29T01:52:33.772Z,31.30
2023-04-29T01:55:00.370Z,29.25
2023-04-29T01:57:35.963Z,30.05
2023-04-29T02:00:17.650Z,38.42
2023-04-29T02:02:50.175Z,42.60
2023-04-29T02:05:32.306Z,31.35
2023-04-29T02:07:59.201Z,34.72
2023-04-29T02:10:26.056Z,33.33
2023-04-29T02:13:01.470Z,38.90
2023-04-29T02:15:29.207Z,36.95
2023-04-29T02:17:56.112Z,41.70
2023-04-29T02:20:22.874Z,35.53
2023-04-29T02:22:49.552Z,39.78
2023-04-29T02:25:16.373Z,40.42
2023-04-29T02:27:43.134Z,36.35
2023-04-29T02:30:10.084Z,35.05
2023-04-29T02:32:39.400Z,40.15
2023-04-29T02:35:07.366Z,28.48
2023-04-29T02:37:34.490Z,34.90
2023-04-29T02:40:03.736Z,31.00
2023-04-29T02:42:30.805Z,37.83
2023-04-29T02:44:57.855Z,33.33
2023-04-29T02:47:24.695Z,35.60
2023-04-29T02:49:51.836Z,37.78
2023-04-29T02:52:19.048Z,35.15
2023-04-29T02:54:46.528Z,33.25
2023-04-29T02:57:13.146Z,33.25
2023-04-29T02:59:39.678Z,38.40
2023-04-29T03:02:06.255Z,38.80
2023-04-29T03:04:33.267Z,41.20
2023-04-29T03:06:59.835Z,44.55
2023-04-29T03:09:27.718Z,39.85
2023-04-29T03:11:54.473Z,36.42
2023-04-29T03:14:21.165Z,42.55
2023-04-29T03:16:48.514Z,34.47
2023-04-29T03:19:15.319Z,31.83
2023-04-29T03:21:41.878Z,34.33
2023-04-29T03:24:08.496Z,42.30
2023-04-29T03:26:36.830Z,36.60
2023-04-29T03:29:04.266Z,41.95
2023-04-29T03:31:30.962Z,37.28
2023-04-29T03:33:57.778Z,35.38
2023-04-29T03:36:24.402Z,36.50
2023-04-29T03:39:01.239Z,29.88
2023-04-29T03:41:28.915Z,30.15
2023-04-29T03:44:00.586Z,31.42
2023-04-29T03:46:29.094Z,30.77
2023-04-29T03:48:58.637Z,30.40
2023-04-29T03:51:26.142Z,33.05
2023-04-29T03:53:59.665Z,32.45
2023-04-29T03:56:26.471Z,33.22
2023-04-29T03:58:53.316Z,34.00
2023-04-29T04:01:21.954Z,31.33
2023-04-29T04:03:48.861Z,38.05
2023-04-29T04:06:15.598Z,32.10
2023-04-29T04:08:42.395Z,30.55
2023-04-29T04:13:38.205Z,40.80
2023-04-29T04:16:05.623Z,33.28
2023-04-29T04:18:32.443Z,33.60
2023-04-29T04:21:05.873Z,32.90
2023-04-29T04:23:32.647Z,33.75
2023-04-29T04:26:00.807Z,36.45
2023-04-29T04:28:46.346Z,30.90
2023-04-29T04:31:20.409Z,29.58
2023-04-29T04:33:47.018Z,32.53
2023-04-29T04:36:14.265Z,35.55
2023-04-29T04:38:41.132Z,39.22
2023-04-29T04:41:11.482Z,34.83
2023-04-29T04:43:40.873Z,35.03
2023-04-29T04:46:16.002Z,33.10
2023-04-29T04:49:00.483Z,35.58
2023-04-29T04:51:31.461Z,36.60
2023-04-29T04:53:58.097Z,32.83
2023-04-29T04:56:28.396Z,34.30
2023-04-29T04:58:55.051Z,37.35
2023-04-29T05:01:21.674Z,38.80
2023-04-29T05:03:48.464Z,43.95
2023-04-29T05:06:15.650Z,33.22
2023-04-29T05:08:45.478Z,36.63
2023-04-29T05:11:21.836Z,41.75
2023-04-29T05:14:18.524Z,36.58
2023-04-29T05:16:46.677Z,39.17
2023-04-29T05:19:13.446Z,38.10
2023-04-29T05:21:40.793Z,43.33
2023-04-29T05:24:13.761Z,40.05
2023-04-29T05:26:44.605Z,47.28
2023-04-29T05:29:12.227Z,50.55
2023-04-29T05:31:48.694Z,40.72
2023-04-29T05:34:15.756Z,42.28
2023-04-29T05:36:42.351Z,41.40
2023-04-29T05:39:09.064Z,43.80
2023-04-29T05:41:35.738Z,48.42
2023-04-29T05:44:32.825Z,50.28
2023-04-29T05:46:59.402Z,44.95
2023-04-29T05:49:25.909Z,49.88
2023-04-29T05:51:52.526Z,45.22
2023-04-29T05:54:19.107Z,56.08
2023-04-29T05:56:46.634Z,47.55
2023-04-29T05:59:13.553Z,49.08
2023-04-29T06:01:40.552Z,48.63
2023-04-29T06:04:08.243Z,48.78
2023-04-29T06:06:56.824Z,47.47
2023-04-29T06:09:42.757Z,49.58
2023-04-29T06:12:10.649Z,52.10
2023-04-29T06:14:37.326Z,49.83
2023-04-29T06:17:07.022Z,41.40
2023-04-29T06:19:34.141Z,41.72
2023-04-29T06:22:00.883Z,40.90
2023-04-29T06:24:27.566Z,45.83
2023-04-29T06:26:54.274Z,45.85
2023-04-29T06:29:21.018Z,38.63
2023-04-29T06:31:47.710Z,40.85
2023-04-29T06:34:14.556Z,39.90
2023-04-29T06:37:07.258Z,36.38
2023-04-29T06:39:59.916Z,36.00
2023-04-29T06:42:49.448Z,42.38
2023-04-29T06:45:42.655Z,38.67
2023-04-29T06:48:18.366Z,37.47
2023-04-29T06:50:55.907Z,34.97
2023-04-29T06:53:22.831Z,35.03
2023-04-29T06:55:50.960Z,34.60
2023-04-29T06:58:20.438Z,28.83
2023-04-29T07:00:48.802Z,39.60
2023-04-29T07:03:16.181Z,32.88
2023-04-29T07:05:45.412Z,28.42
2023-04-29T07:08:13.681Z,36.50
2023-04-29T07:10:41.653Z,32.78
2023-04-29T07:13:08.526Z,32.03
2023-04-29T07:15:36.411Z,33.30
2023-04-29T07:18:06.929Z,26.35
2023-04-29T07:20:36.828Z,27.73
2023-04-29T07:23:03.436Z,26.92
2023-04-29T07:25:30.911Z,23.52
2023-04-29T07:27:57.727Z,23.92
2023-04-29T07:30:28.489Z,17.83
2023-04-29T07:32:55.338Z,24.02
2023-04-29T07:35:22.373Z,21.17
2023-04-29T07:37:49.260Z,20.85
2023-04-29T07:40:15.930Z,19.63
2023-04-29T07:42:43.274Z,19.52
2023-04-29T07:45:10.399Z,18.35
2023-04-29T07:47:37.179Z,30.65
2023-04-29T07:50:05.278Z,18.23
2023-04-29T07:52:31.937Z,22.80
2023-04-29T07:54:58.615Z,16.55
2023-04-29T07:57:25.336Z,22.13
2023-04-29T07:59:55.126Z,20.92
2023-04-29T08:02:22.121Z,20.33
2023-04-29T08:04:51.476Z,18.10
2023-04-29T08:07:18.989Z,19.83
2023-04-29T08:09:45.775Z,14.85
2023-04-29T08:12:12.481Z,20.17
2023-04-29T08:14:40.350Z,19.52
2023-04-29T08:17:08.311Z,17.73
2023-04-29T08:19:35.016Z,20.80
2023-04-29T08:22:01.944Z,20.05
2023-04-29T08:24:29.677Z,19.98
2023-04-29T08:26:56.384Z,17.38
2023-04-29T08:29:22.884Z,17.85
2023-04-29T08:31:50.142Z,18.92
2023-04-29T08:34:16.861Z,13.30
2023-04-29T08:36:43.536Z,13.00
2023-04-29T08:39:10.450Z,21.80
2023-04-29T08:41:39.889Z,15.30
2023-04-29T08:44:06.837Z,13.45
2023-04-29T08:46:33.918Z,15.25
2023-04-29T08:49:03.852Z,15.77
2023-04-29T08:51:32.250Z,12.70
2023-04-29T08:53:58.878Z,15.02
2023-04-29T08:56:28.050Z,13.77
2023-04-29T08:58:59.021Z,12.02
2023-04-29T09:01:29.542Z,12.25
2023-04-29T09:04:15.894Z,14.75
2023-04-29T09:06:42.530Z,13.25
2023-04-29T09:09:09.682Z,13.35
2023-04-29T09:11:37.481Z,10.60
2023-04-29T09:14:08.149Z,19.75
2023-04-29T09:16:37.354Z,14.00
2023-04-29T09:19:04.041Z,10.93
2023-04-29T09:21:33.494Z,11.07
2023-04-29T09:24:01.835Z,15.20
2023-04-29T09:26:40.867Z,13.25
2023-04-29T09:29:14.131Z,15.18
2023-04-29T09:31:41.078Z,14.70
2023-04-29T09:34:08.152Z,10.02
2023-04-29T09:36:49.079Z,14.30
2023-04-29T09:39:20.702Z,12.88
2023-04-29T09:41:53.254Z,14.18
2023-04-29T09:44:20.633Z,13.02
2023-04-29T09:47:04.001Z,11.95
2023-04-29T09:49:33.032Z,13.43
2023-04-29T09:52:01.407Z,11.60
2023-04-29T09:54:33.066Z,11.27
2023-04-29T09:57:02.325Z,14.27
2023-04-29T09:59:28.934Z,11.07
2023-04-29T10:01:57.503Z,13.27
2023-04-29T10:04:26.413Z,16.67
2023-04-29T10:06:54.804Z,14.68
2023-04-29T10:09:23.123Z,13.85
2023-04-29T10:11:52.009Z,15.88
2023-04-29T10:14:24.860Z,17.65
2023-04-29T10:17:18.517Z,11.23
2023-04-29T10:19:58.849Z,15.93
2023-04-29T10:22:46.425Z,15.00
2023-04-29T10:25:15.124Z,16.77
2023-04-29T10:27:48.402Z,18.17
2023-04-29T10:30:19.871Z,18.15
2023-04-29T10:32:51.724Z,16.33
2023-04-29T10:35:22.759Z,17.45
2023-04-29T10:37:49.682Z,17.02
2023-04-29T10:40:27.990Z,15.50
2023-04-29T10:42:55.570Z,16.20
2023-04-29T10:45:29.983Z,14.23
2023-04-29T10:48:11.824Z,11.40
2023-04-29T10:51:01.382Z,13.38
2023-04-29T10:53:31.321Z,13.07
2023-04-29T10:56:09.349Z,14.43
2023-04-29T10:58:45.750Z,12.82
2023-04-29T11:01:17.681Z,13.15
2023-04-29T11:06:15.909Z,11.30
2023-04-29T11:08:45.557Z,15.02
2023-04-29T11:11:14.336Z,12.40
2023-04-29T11:13:40.996Z,19.00
2023-04-29T11:16:08.745Z,12.85
2023-04-29T11:18:36.946Z,14.07
2023-04-29T11:21:06.621Z,14.20
2023-04-29T11:23:37.246Z,17.48
2023-04-29T11:26:07.071Z,12.55
2023-04-29T11:28:34.140Z,14.82
2023-04-29T11:31:00.899Z,11.63
2023-04-29T11:33:28.070Z,19.92
2023-04-29T11:35:55.895Z,12.35
2023-04-29T11:38:30.385Z,14.68
2023-04-29T11:41:00.177Z,11.60
2023-04-29T11:43:26.883Z,13.45
2023-04-29T11:45:53.809Z,14.18
2023-04-29T11:48:26.585Z,11.25
2023-04-29T11:51:00.019Z,15.35
2023-04-29T11:53:30.408Z,12.80
2023-04-29T11:55:57.223Z,13.52
2023-04-29T11:58:24.812Z,15.27
2023-04-29T12:00:54.486Z,13.05
2023-04-29T12:03:21.838Z,12.90
2023-04-29T12:05:56.614Z,12.13
2023-04-29T12:08:28.020Z,12.93
2023-04-29T12:10:56.359Z,11.02
2023-04-29T12:13:24.520Z,16.13
2023-04-29T12:15:52.665Z,17.40
2023-04-29T12:18:19.949Z,12.18
2023-04-29T12:20:48.165Z,13.70
2023-04-29T12:23:17.962Z,11.70
2023-04-29T12:25:53.166Z,17.13
2023-04-29T12:28:20.952Z,13.38
2023-04-29T12:30:49.207Z,11.27
2023-04-29T12:33:19.794Z,12.80
2023-04-29T12:35:46.330Z,12.68
2023-04-29T12:38:18.254Z,10.38
2023-04-29T12:43:11.999Z,9.90
2023-04-29T12:45:39.052Z,10.30
2023-04-29T12:48:09.999Z,13.05
2023-04-29T12:50:49.640Z,10.40
2023-04-29T12:53:16.311Z,10.68
2023-04-29T12:55:42.948Z,9.43
2023-04-29T12:58:09.727Z,11.50
2023-04-29T13:00:37.893Z,13.25
2023-04-29T13:03:04.916Z,12.70
2023-04-29T13:05:31.802Z,14.52
2023-04-29T13:07:58.504Z,14.85
2023-04-29T13:10:26.499Z,13.77
2023-04-29T13:12:53.073Z,13.68
2023-04-29T13:15:19.718Z,16.80
2023-04-29T13:17:46.492Z,15.20
2023-04-29T13:20:13.458Z,15.20
2023-04-29T13:22:40.061Z,11.30
2023-04-29T13:25:07.320Z,12.43
2023-04-29T13:27:33.931Z,10.95
2023-04-29T13:30:00.979Z,15.20
2023-04-29T13:32:38.114Z,15.40
2023-04-29T13:35:11.374Z,13.45
2023-04-29T13:37:37.866Z,9.93
2023-04-29T13:40:07.220Z,13.98
2023-04-29T13:42:39.566Z,13.98
2023-04-29T13:45:16.230Z,11.48
2023-04-29T13:48:03.698Z,17.70
2023-04-29T13:58:43.740Z,11.48
2023-04-29T14:01:17.136Z,16.30
2023-04-29T14:03:35.647Z,15.43
2023-04-29T14:06:02.784Z,15.63
2023-04-29T14:08:29.419Z,13.68
2023-04-29T14:10:55.995Z,15.25
2023-04-29T14:13:22.729Z,14.18
2023-04-29T14:15:49.296Z,16.70
2023-04-29T14:18:15.973Z,11.40
2023-04-29T14:20:42.559Z,20.15
2023-04-29T14:23:09.106Z,16.52
2023-04-29T14:25:35.722Z,11.50
2023-04-29T14:28:02.396Z,13.27
2023-04-29T14:30:29.079Z,12.57
2023-04-29T14:32:58.296Z,17.92
2023-04-29T14:35:25.015Z,12.98
2023-04-29T14:37:51.706Z,16.80
2023-04-29T14:40:18.290Z,15.30
2023-04-29T14:42:44.862Z,13.30
2023-04-29T14:45:12.297Z,16.58
2023-04-29T14:47:38.919Z,16.67
2023-04-29T14:50:06.299Z,15.30
2023-04-29T14:52:32.886Z,15.48
2023-04-29T14:54:59.392Z,19.45
2023-04-29T14:57:26.336Z,16.35
2023-04-29T14:59:52.839Z,17.65
2023-04-29T15:02:20.357Z,15.05
2023-04-29T15:04:47.069Z,15.60
2023-04-29T15:07:14.157Z,16.58
2023-04-29T15:09:40.879Z,18.55
2023-04-29T15:12:08.713Z,17.50
2023-04-29T15:14:35.511Z,15.52
2023-04-29T15:17:02.114Z,20.83
2023-04-29T15:19:28.716Z,17.23
2023-04-29T15:21:55.751Z,17.13
2023-04-29T15:24:22.392Z,19.65
2023-04-29T15:26:49.767Z,14.35
2023-04-29T15:29:16.270Z,16.75
2023-04-29T15:31:42.965Z,17.92
2023-04-29T15:34:09.680Z,19.17
2023-04-29T15:36:36.583Z,17.88
2023-04-29T15:39:03.291Z,21.95
2023-04-29T15:41:29.891Z,23.30
2023-04-29T15:43:57.360Z,21.63
2023-04-29T15:46:24.598Z,18.55
2023-04-29T15:48:51.616Z,16.55
2023-04-29T15:51:18.724Z,15.48
2023-04-29T15:53:45.462Z,21.27
2023-04-29T15:56:12.199Z,21.50
2023-04-29T15:58:41.591Z,19.88
2023-04-29T16:03:28.145Z,20.98
2023-04-29T16:05:54.916Z,18.95
2023-04-29T16:08:21.439Z,16.63
2023-04-29T16:10:49.620Z,20.35
2023-04-29T16:13:16.153Z,17.35
2023-04-29T16:15:42.865Z,24.80
2023-04-29T16:18:09.676Z,23.55
2023-04-29T16:20:36.407Z,18.63
2023-04-29T16:23:03.004Z,20.92
2023-04-29T16:25:29.646Z,20.63
2023-04-29T16:27:56.482Z,20.17
2023-04-29T16:30:23.631Z,17.52
2023-04-29T16:32:50.498Z,17.52
2023-04-29T16:35:17.255Z,18.52
2023-04-29T16:37:43.789Z,16.52
2023-04-29T16:40:11.064Z,16.77
2023-04-29T16:42:38.760Z,23.00
2023-04-29T16:45:07.256Z,20.42
2023-04-29T16:47:35.354Z,17.27
2023-04-29T16:50:01.993Z,22.63
2023-04-29T16:52:28.894Z,21.90
2023-04-29T16:54:57.142Z,22.02
2023-04-29T16:57:26.508Z,17.90
2023-04-29T16:59:53.829Z,21.55
2023-04-29T17:02:21.072Z,23.48
2023-04-29T17:04:47.877Z,25.58
2023-04-29T17:07:15.791Z,28.92
2023-04-29T17:09:44.315Z,24.10
2023-04-29T17:12:10.939Z,31.02
2023-04-29T17:14:40.223Z,28.02
2023-04-29T17:17:07.271Z,29.95
2023-04-29T17:19:34.472Z,34.25
2023-04-29T17:22:00.998Z,27.92
2023-04-29T17:24:27.653Z,27.15
2023-04-29T17:26:54.267Z,30.25
2023-04-29T17:29:20.920Z,34.83
2023-04-29T17:31:54.482Z,29.35
2023-04-29T17:34:25.329Z,23.05
2023-04-29T17:36:53.202Z,22.35
2023-04-29T17:39:19.938Z,25.20
2023-04-29T17:41:46.731Z,29.83
2023-04-29T17:44:13.215Z,32.42
2023-04-29T17:46:43.084Z,44.53
2023-04-29T17:49:09.647Z,44.28
2023-04-29T17:51:36.444Z,50.47
2023-04-29T17:54:07.204Z,51.58
2023-04-29T17:56:35.049Z,46.00
2023-04-29T17:59:02.537Z,54.08
2023-04-29T18:01:29.348Z,80.28
2023-04-29T18:03:55.955Z,85.20
2023-04-29T18:06:22.652Z,78.70
2023-04-29T18:08:49.242Z,72.78
2023-04-29T18:11:15.760Z,60.63
2023-04-29T18:13:42.331Z,58.42
2023-04-29T18:16:09.134Z,62.45
2023-04-29T18:18:37.216Z,54.35
2023-04-29T18:21:04.552Z,47.95
2023-04-29T18:23:31.246Z,44.53
2023-04-29T18:25:58.013Z,37.25
2023-04-29T18:28:25.554Z,47.30
2023-04-29T18:30:52.718Z,43.45
2023-04-29T18:33:19.328Z,41.25
2023-04-29T18:35:46.233Z,41.78
2023-04-29T18:38:16.221Z,42.75
2023-04-29T18:40:45.981Z,38.72
2023-04-29T18:43:15.195Z,42.75
2023-04-29T18:45:41.850Z,48.90
2023-04-29T18:48:08.659Z,56.10
2023-04-29T18:50:35.361Z,57.30
2023-04-29T18:53:01.900Z,52.40
2023-04-29T18:55:28.848Z,56.53
2023-04-29T18:57:55.382Z,65.30
2023-04-29T19:00:22.187Z,66.95
2023-04-29T19:02:49.178Z,54.05
2023-04-29T19:05:16.412Z,53.28
2023-04-29T19:07:43.334Z,59.88
2023-04-29T19:10:10.366Z,53.55
2023-04-29T19:12:37.108Z,86.50
2023-04-29T19:15:04.067Z,61.15
2023-04-29T19:17:30.594Z,63.15
2023-04-29T19:19:57.296Z,58.88
2023-04-29T19:22:23.875Z,60.67
2023-04-29T19:24:50.490Z,61.72
2023-04-29T19:27:17.208Z,56.70
2023-04-29T19:29:43.926Z,56.72
2023-04-29T19:32:10.499Z,77.80
2023-04-29T19:34:37.176Z,87.68
2023-04-29T19:37:04.179Z,103.78
2023-04-29T19:39:30.857Z,90.88
2023-04-29T19:41:58.242Z,81.50
2023-04-29T19:44:28.042Z,81.60
2023-04-29T19:46:54.617Z,79.68
2023-04-29T19:49:21.312Z,85.10
2023-04-29T19:51:47.927Z,73.70
2023-04-29T19:54:14.476Z,71.70
2023-04-29T19:56:41.060Z,67.68
2023-04-29T19:59:07.704Z,68.10
2023-04-29T20:01:34.431Z,60.30
2023-04-29T20:04:01.018Z,61.08
2023-04-29T20:06:28.318Z,59.53
2023-04-29T20:08:54.827Z,59.08
2023-04-29T20:11:21.884Z,57.20
2023-04-29T20:13:52.160Z,59.50
2023-04-29T20:16:19.502Z,58.70
2023-04-29T20:18:47.085Z,59.05
2023-04-29T20:21:13.676Z,52.33
2023-04-29T20:23:40.208Z,58.88
2023-04-29T20:26:06.804Z,50.42
2023-04-29T20:28:33.370Z,55.05
2023-04-29T20:30:59.993Z,50.20
2023-04-29T20:33:29.803Z,49.25
2023-04-29T20:35:57.580Z,50.63
2023-04-29T20:38:24.737Z,65.45
2023-04-29T20:40:54.466Z,55.70
2023-04-29T20:43:23.733Z,49.50
2023-04-29T20:45:50.732Z,56.33
2023-04-29T20:48:17.911Z,57.67
2023-04-29T20:50:44.510Z,62.42
2023-04-29T20:53:11.111Z,59.55
2023-04-29T20:55:38.243Z,57.08
2023-04-29T20:58:04.916Z,61.58
2023-04-29T21:00:31.920Z,63.47
2023-04-29T21:02:58.455Z,55.72
2023-04-29T21:05:27.051Z,64.15
2023-04-29T21:07:53.621Z,66.00
2023-04-29T21:10:20.866Z,62.85
2023-04-29T21:12:47.463Z,64.63
2023-04-29T21:15:14.211Z,68.60
2023-04-29T21:17:40.714Z,69.15
2023-04-29T21:20:08.715Z,71.53
2023-04-29T21:22:35.479Z,77.82
2023-04-29T21:25:02.097Z,75.20
2023-04-29T21:27:28.741Z,86.75
2023-04-29T21:29:55.630Z,71.60
2023-04-29T21:32:22.406Z,69.82
2023-04-29T21:34:49.150Z,78.18
2023-04-29T21:37:15.926Z,66.47
2023-04-29T21:39:42.724Z,77.53
2023-04-29T21:42:10.895Z,71.18
2023-04-29T21:44:38.282Z,72.18
2023-04-29T21:47:05.016Z,68.85
2023-04-29T21:49:32.029Z,67.95
2023-04-29T21:51:59.447Z,67.13
2023-04-29T21:54:26.042Z,69.85
2023-04-29T21:59:12.880Z,70.10
2023-04-29T22:01:48.045Z,68.47
2023-04-29T22:04:19.047Z,68.68
2023-04-29T22:06:46.376Z,72.63
2023-04-29T22:09:13.064Z,75.25
2023-04-29T22:11:39.729Z,75.82
2023-04-29T22:14:06.603Z,77.00
2023-04-29T22:16:35.897Z,74.88
2023-04-29T22:19:03.074Z,78.68
2023-04-29T22:21:29.961Z,76.82
2023-04-29T22:23:56.464Z,71.00
2023-04-29T22:26:25.546Z,67.90
2023-04-29T22:28:52.538Z,72.22
2023-04-29T22:31:19.162Z,76.53
2023-04-29T22:33:46.189Z,72.35
2023-04-29T22:36:12.747Z,73.65
2023-04-29T22:38:39.291Z,83.78
2023-04-29T22:41:07.180Z,91.90
2023-04-29T22:43:33.677Z,94.65
2023-04-29T22:46:00.973Z,93.78
2023-04-29T22:48:28.117Z,100.72
2023-04-29T22:50:58.647Z,89.18
2023-04-29T22:53:26.646Z,87.05
2023-04-29T22:55:55.080Z,99.18
2023-04-29T22:58:22.054Z,108.10
2023-04-29T23:00:56.861Z,94.63
2023-04-29T23:03:24.251Z,95.10
2023-04-29T23:05:51.376Z,82.88
2023-04-29T23:08:18.081Z,88.32
2023-04-29T23:10:49.382Z,84.05
2023-04-29T23:13:16.589Z,70.65
2023-04-29T23:15:43.654Z,75.72
2023-04-29T23:18:10.448Z,66.50
2023-04-29T23:20:37.101Z,70.32
2023-04-29T23:23:04.959Z,66.80
2023-04-29T23:25:31.580Z,61.42
2023-04-29T23:27:58.202Z,53.10
2023-04-29T23:30:24.792Z,50.13
2023-04-29T23:32:51.394Z,52.65
2023-04-29T23:35:17.914Z,53.97
2023-04-29T23:37:44.600Z,54.50
2023-04-29T23:40:11.325Z,50.40
2023-04-29T23:42:37.884Z,53.60
2023-04-29T23:45:05.773Z,58.70
2023-04-29T23:47:32.399Z,48.50
2023-04-29T23:49:58.941Z,47.85
2023-04-29T23:52:25.697Z,42.30
2023-04-29T23:54:52.240Z,45.63
2023-04-29T23:57:18.798Z,43.08
2023-04-29T23:59:45.668Z,43.35
